Time;durP1;ratioP1;P1;durP2;ratioP2;P2;SDS_P1;SDS_P2;PMS_P1;PMS_P2;Temp;Humidity;BMP_temperature;BMP_pressure;BME280_temperature;BME280_humidity;BME280_pressure;Samples;Min_cycle;Max_cycle;Signal;HPM_P1;HPM_P2
2021/05/17 00:01:54;;;;;;;3.67;2.25;;;;;;;10.66;82.59;100075.91;5134921;27;20104;-39
2021/05/17 00:04:32;;;;;;;3.28;2.20;;;;;;;10.69;82.53;100072.72;5134644;27;20035;-39
2021/05/17 00:06:58;;;;;;;4.13;2.35;;;;;;;10.60;82.93;100068.81;5134514;27;20088;-39
2021/05/17 00:09:24;;;;;;;3.40;2.33;;;;;;;10.62;83.33;100070.19;5135386;27;20035;-39
2021/05/17 00:11:50;;;;;;;4.18;2.70;;;;;;;10.66;83.94;100067.81;5134871;27;20072;-39
2021/05/17 00:14:16;;;;;;;2.88;2.22;;;;;;;10.66;83.25;100067.81;5135020;27;20025;-39
2021/05/17 00:16:42;;;;;;;3.75;2.45;;;;;;;10.57;83.11;100075.53;5134180;27;20106;-39
2021/05/17 00:19:08;;;;;;;3.88;2.58;;;;;;;10.60;83.60;100063.41;5134371;27;20023;-39
2021/05/17 00:21:34;;;;;;;4.00;2.63;;;;;;;10.59;83.71;100068.00;5136217;27;20023;-39
2021/05/17 00:23:59;;;;;;;4.10;2.63;;;;;;;10.57;83.56;100068.22;5141786;27;20086;-39
2021/05/17 00:26:25;;;;;;;3.73;2.40;;;;;;;10.67;83.91;100066.72;5142052;27;20719;-39
2021/05/17 00:28:50;;;;;;;5.88;2.55;;;;;;;10.57;82.94;100075.53;5140151;27;20049;-39
2021/05/17 00:31:16;;;;;;;3.72;2.00;;;;;;;10.60;83.00;100068.81;5141702;27;20031;-39
2021/05/17 00:33:43;;;;;;;3.55;2.30;;;;;;;10.67;82.95;100077.53;5141459;27;20116;-39
2021/05/17 00:36:09;;;;;;;2.97;2.13;;;;;;;10.55;83.65;100073.06;5141433;27;20030;-39
2021/05/17 00:38:35;;;;;;;5.20;2.50;;;;;;;10.61;83.22;100062.31;5141061;27;20503;-39
2021/05/17 00:41:00;;;;;;;3.58;1.83;;;;;;;10.56;83.01;100077.41;5141054;27;20055;-39
2021/05/17 00:43:35;;;;;;;3.40;2.00;;;;;;;10.56;82.97;100079.28;5141079;27;20068;-39
2021/05/17 00:46:03;;;;;;;3.40;1.60;;;;;;;10.48;83.35;100067.00;5141346;27;20019;-39
2021/05/17 00:48:28;;;;;;;2.92;1.52;;;;;;;10.47;83.16;100076.19;5140940;27;20038;-39
2021/05/17 00:50:54;;;;;;;3.35;1.58;;;;;;;10.50;83.08;100066.78;5140973;27;20027;-39
2021/05/17 00:53:20;;;;;;;2.40;1.58;;;;;;;10.49;82.83;100065.13;5141182;27;20061;-39
2021/05/17 00:55:45;;;;;;;3.97;1.48;;;;;;;10.52;82.63;100062.75;5141419;27;20031;-39
2021/05/17 00:58:11;;;;;;;3.45;1.75;;;;;;;10.45;83.63;100062.13;5141615;27;20072;-39
2021/05/17 01:00:37;;;;;;;5.55;1.73;;;;;;;10.49;82.47;100065.97;5141088;27;20027;-39
2021/05/17 01:03:03;;;;;;;3.38;1.73;;;;;;;10.45;83.56;100064.00;5141314;27;20050;-39
2021/05/17 01:05:28;;;;;;;3.42;1.70;;;;;;;10.45;83.23;100059.41;5140822;27;20023;-39
2021/05/17 01:07:54;;;;;;;3.80;2.30;;;;;;;10.42;83.12;100057.19;5140531;27;20042;-39
2021/05/17 01:10:21;;;;;;;5.30;2.20;;;;;;;10.44;82.83;100059.66;5141110;27;20545;-39
2021/05/17 01:12:48;;;;;;;3.53;1.98;;;;;;;10.33;82.78;100064.09;5140788;27;20420;-39
2021/05/17 01:15:16;;;;;;;4.45;2.13;;;;;;;10.26;83.26;100058.06;5141341;27;20023;-39
2021/05/17 01:17:41;;;;;;;4.05;2.03;;;;;;;10.33;82.68;100056.00;5140278;27;20482;-39
2021/05/17 01:20:11;;;;;;;3.40;1.98;;;;;;;10.31;82.93;100055.44;5141134;27;20111;-39
2021/05/17 01:23:01;;;;;;;3.67;2.00;;;;;;;10.21;83.28;100049.84;5140620;27;20110;-39
2021/05/17 01:25:28;;;;;;;4.82;2.25;;;;;;;10.20;83.72;100054.44;5141214;27;20027;-39
2021/05/17 01:27:56;;;;;;;3.67;2.40;;;;;;;10.21;83.71;100049.84;5140911;27;20054;-39
2021/05/17 01:30:22;;;;;;;4.93;2.30;;;;;;;10.21;84.22;100056.06;5141212;27;20033;-39
2021/05/17 01:32:51;;;;;;;6.40;2.80;;;;;;;10.20;83.30;100059.00;5139744;27;20058;-39
2021/05/17 01:35:17;;;;;;;4.13;2.30;;;;;;;10.18;84.01;100061.13;5137258;27;20477;-39
2021/05/17 01:37:45;;;;;;;4.97;2.95;;;;;;;10.14;84.13;100057.28;5137211;27;20027;-39
2021/05/17 01:40:11;;;;;;;6.68;3.38;;;;;;;10.11;83.73;100053.22;5137342;27;20481;-39
2021/05/17 01:42:40;;;;;;;;;;;;;;;10.21;82.57;100047.97;5137095;27;20481;-39
2021/05/17 01:45:07;;;;;;;4.18;2.60;;;;;;;10.06;83.08;100047.75;5137606;27;19907;-39
2021/05/17 01:47:39;;;;;;;3.40;2.38;;;;;;;10.06;84.54;100045.84;5136853;27;20016;-39
2021/05/17 01:50:06;;;;;;;4.55;2.58;;;;;;;10.04;84.33;100053.38;5136924;27;20494;-39
2021/05/17 01:52:34;;;;;;;4.95;2.60;;;;;;;10.11;83.61;100049.69;5136861;27;20019;-39
2021/05/17 01:55:02;;;;;;;4.78;2.90;;;;;;;9.97;84.78;100050.03;5136785;27;20100;-39
2021/05/17 01:57:28;;;;;;;6.80;3.05;;;;;;;9.98;84.31;100051.66;5136660;27;20023;-39
2021/05/17 01:59:53;;;;;;;6.60;2.90;;;;;;;10.04;84.61;100050.66;5136703;27;20023;-39
2021/05/17 02:02:18;;;;;;;7.03;3.30;;;;;;;10.05;84.31;100051.47;5136618;27;20024;-39
2021/05/17 02:04:44;;;;;;;4.07;2.60;;;;;;;10.00;84.87;100054.09;5137232;27;20039;-39
2021/05/17 02:07:10;;;;;;;5.78;2.67;;;;;;;10.00;84.48;100054.94;5136649;27;20027;-39
2021/05/17 02:09:37;;;;;;;;;;;;;;;10.09;84.41;100057.22;5137677;27;20080;-39
2021/05/17 02:12:03;;;;;;;4.80;2.80;;;;;;;10.05;84.42;100051.47;5136600;27;19911;-39
2021/05/17 02:14:30;;;;;;;6.90;3.10;;;;;;;9.99;84.65;100047.88;5136905;27;20094;-39
2021/05/17 02:16:55;;;;;;;7.20;3.08;;;;;;;10.03;85.10;100056.31;5136488;27;20382;-39
2021/05/17 02:19:22;;;;;;;6.68;3.45;;;;;;;9.98;85.15;100057.06;5136735;27;20039;-39
2021/05/17 02:21:48;;;;;;;4.35;3.15;;;;;;;10.00;85.04;100051.41;5136663;27;20034;-39
2021/05/17 02:24:15;;;;;;;6.20;3.33;;;;;;;9.99;84.89;100052.47;5136772;27;20377;-39
2021/05/17 02:26:40;;;;;;;6.50;3.10;;;;;;;10.00;85.03;100059.50;5136277;27;20038;-39
2021/05/17 02:29:07;;;;;;;6.43;3.78;;;;;;;10.00;85.31;100057.66;5136855;27;20027;-39
2021/05/17 02:31:32;;;;;;;5.10;3.13;;;;;;;10.01;84.92;100064.69;5136267;27;20030;-39
2021/05/17 02:33:58;;;;;;;7.28;3.17;;;;;;;10.03;84.50;100062.53;5136658;27;20043;-39
2021/05/17 02:36:24;;;;;;;4.82;2.70;;;;;;;10.08;85.69;100056.41;5136410;27;20031;-39
2021/05/17 02:38:51;;;;;;;4.88;2.55;;;;;;;10.04;85.14;100057.94;5136034;27;20020;-39
2021/05/17 02:41:21;;;;;;;6.07;3.22;;;;;;;10.07;85.42;100055.59;5136498;27;20361;-39
2021/05/17 02:43:46;;;;;;;7.15;3.47;;;;;;;10.05;84.81;100057.72;5135986;27;20440;-39
2021/05/17 02:46:12;;;;;;;5.22;3.15;;;;;;;10.06;84.68;100053.13;5134707;27;20058;-39
2021/05/17 02:48:41;;;;;;;5.03;2.77;;;;;;;10.10;85.04;100056.16;5136077;27;20023;-39
2021/05/17 02:51:09;;;;;;;5.30;2.90;;;;;;;10.05;85.56;100057.72;5135813;27;20066;-39
2021/05/17 02:53:37;;;;;;;5.55;3.20;;;;;;;10.07;84.83;100060.19;5135687;27;20023;-39
2021/05/17 02:56:14;;;;;;;4.88;3.20;;;;;;;10.11;85.32;100060.50;5136281;27;20043;-39
2021/05/17 02:58:42;;;;;;;5.40;2.80;;;;;;;10.10;85.66;100059.66;5135638;27;20110;-39
2021/05/17 03:01:14;;;;;;;6.45;3.38;;;;;;;10.11;85.40;100058.63;5136062;27;20370;-39
2021/05/17 03:03:55;;;;;;;6.05;3.03;;;;;;;10.09;84.96;100059.91;5136173;27;20417;-39
2021/05/17 03:06:30;;;;;;;4.13;2.88;;;;;;;10.05;85.51;100057.72;5136135;27;20031;-39
2021/05/17 03:09:02;;;;;;;4.68;2.53;;;;;;;10.07;84.68;100050.19;5135878;27;20466;-39
2021/05/17 03:11:28;;;;;;;7.03;2.72;;;;;;;10.13;84.38;100055.66;5135396;27;20082;-39
2021/05/17 03:13:55;;;;;;;5.28;2.97;;;;;;;10.06;84.84;100059.34;5135005;27;20035;-39
2021/05/17 03:16:23;;;;;;;4.05;2.50;;;;;;;10.04;85.20;100056.06;5135081;27;20023;-39
2021/05/17 03:18:55;;;;;;;5.10;2.50;;;;;;;10.05;85.66;100059.59;5134973;27;20053;-39
2021/05/17 03:21:22;;;;;;;5.35;2.92;;;;;;;10.00;84.98;100056.81;5135446;27;20034;-39
2021/05/17 03:23:49;;;;;;;6.00;2.47;;;;;;;10.01;85.57;100061.16;5135118;27;20084;-39
2021/05/17 03:26:17;;;;;;;4.53;2.22;;;;;;;10.02;85.20;100057.41;5135395;27;20035;-39
2021/05/17 03:28:42;;;;;;;3.75;2.30;;;;;;;10.02;85.38;100055.50;5135061;27;20031;-39
2021/05/17 03:31:08;;;;;;;6.23;2.30;;;;;;;10.09;86.02;100057.22;5134004;27;20113;-39
2021/05/17 03:33:33;;;;;;;3.53;2.37;;;;;;;10.08;84.99;100061.81;5135127;27;20047;-39
2021/05/17 03:35:58;;;;;;;7.33;3.30;;;;;;;10.06;85.61;100062.06;5134979;27;20133;-39
2021/05/17 03:38:24;;;;;;;4.20;2.33;;;;;;;10.08;84.68;100059.09;5135750;27;20037;-39
2021/05/17 03:40:49;;;;;;;4.23;2.30;;;;;;;10.10;85.17;100054.25;5135096;27;20066;-39
2021/05/17 03:43:14;;;;;;;4.10;2.40;;;;;;;10.16;84.98;100057.88;5134915;27;20027;-39
2021/05/17 03:45:40;;;;;;;3.47;2.13;;;;;;;10.16;85.79;100057.88;5134878;27;20477;-39
2021/05/17 03:48:06;;;;;;;7.18;2.78;;;;;;;10.12;86.15;100051.34;5134734;27;20466;-39
2021/05/17 03:50:31;;;;;;;4.25;2.60;;;;;;;10.11;85.72;100047.00;5135349;27;20035;-39
2021/05/17 03:52:56;;;;;;;7.47;3.17;;;;;;;10.11;85.56;100050.50;5134704;27;20030;-39
2021/05/17 03:55:22;;;;;;;5.67;2.57;;;;;;;10.09;85.97;100044.53;5134916;27;20048;-39
2021/05/17 03:57:47;;;;;;;4.60;2.73;;;;;;;10.07;86.39;100039.38;5134472;27;20027;-39
2021/05/17 04:00:13;;;;;;;5.50;2.70;;;;;;;10.09;86.01;100046.41;5134591;27;20049;-39
2021/05/17 04:02:40;;;;;;;5.72;2.28;;;;;;;10.09;86.29;100049.13;5134470;27;20131;-38
2021/05/17 04:13:21;;;;;;;5.95;3.22;;;;;;;10.08;86.62;100064.50;5134725;27;20432;-39
2021/05/17 04:15:49;;;;;;;5.95;3.45;;;;;;;10.09;87.03;100068.84;5134864;27;20052;-39
2021/05/17 04:18:16;;;;;;;4.45;3.38;;;;;;;10.05;86.48;100054.19;5133901;27;20398;-39
2021/05/17 04:20:42;;;;;;;6.07;4.07;;;;;;;10.04;87.48;100057.94;5134762;27;20030;-39
2021/05/17 04:23:07;;;;;;;5.38;3.28;;;;;;;10.04;87.00;100055.25;5133919;27;20023;-39
2021/05/17 04:25:32;;;;;;;4.57;3.70;;;;;;;10.07;87.36;100060.19;5134211;27;20027;-39
2021/05/17 04:27:58;;;;;;;5.38;4.30;;;;;;;10.05;87.02;100062.28;5134726;27;20051;-38
2021/05/17 04:30:24;;;;;;;5.03;3.80;;;;;;;10.07;87.15;100057.47;5133978;27;20027;-39
2021/05/17 04:32:49;;;;;;;7.10;4.32;;;;;;;10.11;87.26;100063.22;5134568;27;20027;-39
2021/05/17 04:35:15;;;;;;;4.73;3.23;;;;;;;10.14;87.18;100054.59;5134164;27;20035;-39
2021/05/17 04:37:40;;;;;;;5.03;3.60;;;;;;;10.16;87.09;100057.88;5134371;28;20032;-39
2021/05/17 04:40:07;;;;;;;4.28;3.17;;;;;;;10.15;87.19;100058.91;5134337;27;20023;-39
2021/05/17 04:42:33;;;;;;;7.18;3.28;;;;;;;10.15;87.18;100062.47;5134118;27;20023;-39
2021/05/17 04:44:58;;;;;;;4.50;2.90;;;;;;;10.17;86.63;100062.22;5134486;27;20022;-39
2021/05/17 04:47:24;;;;;;;5.57;2.90;;;;;;;10.15;87.26;100067.03;5133779;27;20034;-39
2021/05/17 04:49:49;;;;;;;4.80;2.80;;;;;;;10.12;87.35;100065.66;5134261;27;20391;-39
2021/05/17 04:52:15;;;;;;;4.33;2.87;;;;;;;10.17;87.63;100070.31;5133716;27;20117;-39
2021/05/17 04:54:40;;;;;;;4.65;2.95;;;;;;;10.18;87.31;100069.25;5134359;27;20080;-39
2021/05/17 04:57:05;;;;;;;4.17;2.77;;;;;;;10.17;87.95;100065.72;5134015;27;20027;-39
2021/05/17 04:59:31;;;;;;;4.97;2.80;;;;;;;10.20;87.73;100064.41;5134472;27;20030;-39
2021/05/17 05:01:56;;;;;;;6.43;2.83;;;;;;;10.26;87.46;100069.69;5133984;27;20272;-39
2021/05/17 05:04:22;;;;;;;4.57;2.67;;;;;;;10.30;87.44;100073.53;5133651;27;20027;-39
2021/05/17 05:06:47;;;;;;;5.53;2.70;;;;;;;10.29;86.63;100079.16;5133644;27;20058;-39
2021/05/17 05:09:12;;;;;;;5.53;2.70;;;;;;;10.32;86.68;100071.38;5135714;27;20027;-39
2021/05/17 05:11:38;;;;;;;8.10;2.50;;;;;;;10.32;85.85;100073.28;5138043;27;20094;-40
2021/05/17 05:14:03;;;;;;;5.67;2.67;;;;;;;10.39;86.61;100082.00;5137733;27;20257;-40
2021/05/17 05:16:29;;;;;;;6.95;2.83;;;;;;;10.39;86.46;100076.59;5138053;27;20054;-39
2021/05/17 05:18:54;;;;;;;6.80;3.07;;;;;;;10.37;85.64;100069.84;5136653;27;20110;-39
2021/05/17 05:21:20;;;;;;;8.03;3.00;;;;;;;10.42;86.41;100081.53;5137511;27;20023;-39
2021/05/17 05:23:46;;;;;;;5.15;2.50;;;;;;;10.44;86.10;100076.72;5138079;27;20035;-39
2021/05/17 05:31:48;;;;;;;5.95;2.58;;;;;;;10.51;85.28;100066.53;5135443;27;20043;-39
2021/05/17 05:34:14;;;;;;;4.68;2.22;;;;;;;10.55;85.33;100080.38;5121002;27;20048;-39
2021/05/17 05:36:39;;;;;;;4.65;2.65;;;;;;;10.53;85.87;100071.66;5114283;28;20100;-39
2021/05/17 05:39:05;;;;;;;4.72;2.53;;;;;;;10.58;85.40;100083.38;5115011;28;20050;-40
2021/05/17 05:41:30;;;;;;;7.63;2.53;;;;;;;10.57;85.08;100080.94;5114766;28;20100;-39
2021/05/17 05:43:56;;;;;;;9.00;2.70;;;;;;;10.54;85.89;100071.44;5114160;28;20028;-40
2021/05/17 05:46:22;;;;;;;5.33;2.63;;;;;;;10.56;85.19;100074.69;5114931;28;20072;-39
2021/05/17 05:48:47;;;;;;;8.48;2.83;;;;;;;10.60;85.68;100079.63;5113981;28;20106;-40
2021/05/17 05:51:22;;;;;;;5.43;2.25;;;;;;;10.63;85.51;100090.72;5114074;28;20050;-39
2021/05/17 05:53:48;;;;;;;7.53;2.65;;;;;;;10.62;85.39;100088.28;5114190;28;20073;-39
2021/05/17 05:56:13;;;;;;;4.68;2.00;;;;;;;10.64;84.97;100088.84;5114092;28;20027;-39
2021/05/17 05:58:41;;;;;;;6.83;2.30;;;;;;;10.66;84.87;100089.44;5113980;28;20084;-39
2021/05/17 06:01:06;;;;;;;6.25;2.28;;;;;;;10.64;85.04;100086.13;5113992;28;20028;-38
2021/05/17 06:03:32;;;;;;;6.50;2.27;;;;;;;10.67;84.85;100075.66;5113909;28;20522;-40
2021/05/17 06:05:57;;;;;;;6.13;2.30;;;;;;;10.70;84.48;100075.16;5116461;28;20602;-40
2021/05/17 06:08:23;;;;;;;4.00;2.00;;;;;;;10.72;85.50;100083.00;5116308;28;20028;-40
2021/05/17 06:10:48;;;;;;;4.93;2.10;;;;;;;10.72;85.12;100077.59;5116071;28;20429;-40
2021/05/17 06:13:14;;;;;;;6.43;2.67;;;;;;;10.74;84.58;100084.41;5116045;28;20653;-40
2021/05/17 06:15:43;;;;;;;7.38;2.70;;;;;;;10.78;84.28;100092.81;5116276;28;20028;-40
2021/05/17 06:18:09;;;;;;;9.10;2.70;;;;;;;10.82;83.61;100088.56;5115560;28;20407;-40
2021/05/17 06:20:35;;;;;;;5.43;1.92;;;;;;;10.86;84.36;100078.88;5115068;28;20059;-40
2021/05/17 06:23:00;;;;;;;5.78;1.92;;;;;;;10.82;83.20;100089.38;5115694;28;20023;-40
2021/05/17 06:25:26;;;;;;;5.65;2.10;;;;;;;10.87;84.28;100088.63;5116230;28;20019;-41
2021/05/17 06:27:52;;;;;;;;;;;;;;;10.96;83.81;100089.00;5116325;28;20099;-40
2021/05/17 06:30:20;;;;;;;4.95;1.67;;;;;;;10.96;84.04;100089.81;5116244;28;19958;-38
2021/05/17 06:32:47;;;;;;;7.22;2.45;;;;;;;10.99;83.73;100097.44;5117172;27;20379;-40
2021/05/17 06:35:13;;;;;;;6.85;2.45;;;;;;;10.94;83.55;100091.16;5136462;27;20156;-40
2021/05/17 06:37:39;;;;;;;5.38;2.05;;;;;;;11.04;83.64;100094.00;5135788;27;20034;-39
2021/05/17 06:40:05;;;;;;;5.72;2.10;;;;;;;11.08;83.30;100093.22;5136556;27;20461;-39
2021/05/17 06:42:31;;;;;;;7.85;2.30;;;;;;;11.16;83.39;100093.84;5136124;27;20371;-40
2021/05/17 06:44:56;;;;;;;5.03;2.17;;;;;;;11.23;82.60;100098.00;5136406;27;20023;-39
2021/05/17 06:47:22;;;;;;;4.90;2.20;;;;;;;11.23;82.36;100087.19;5134649;27;20069;-40
2021/05/17 06:49:48;;;;;;;5.10;2.03;;;;;;;11.41;81.67;100098.72;5136022;27;20031;-39
2021/05/17 06:52:14;;;;;;;6.97;2.10;;;;;;;11.47;81.30;100095.81;5136057;27;20030;-39
2021/05/17 06:54:44;;;;;;;5.00;2.05;;;;;;;11.51;81.20;100091.50;5135585;27;20023;-39
2021/05/17 06:57:25;;;;;;;7.28;2.20;;;;;;;11.62;82.48;100097.06;5136128;27;20052;-39
2021/05/17 06:59:55;;;;;;;6.30;1.83;;;;;;;11.67;80.42;100094.41;5135742;27;20027;-39
2021/05/17 07:02:22;;;;;;;6.43;2.00;;;;;;;11.70;79.87;100100.09;5135476;27;20034;-39
2021/05/17 07:04:49;;;;;;;7.28;1.73;;;;;;;11.78;80.09;100099.66;5133496;27;20110;-39
2021/05/17 07:07:21;;;;;;;4.78;1.65;;;;;;;11.86;79.33;100103.81;5133551;27;20402;-39
2021/05/17 07:12:31;;;;;;;3.45;1.70;;;;;;;11.83;78.61;100107.84;5133135;27;20062;-39
2021/05/17 07:14:59;;;;;;;7.10;1.90;;;;;;;11.78;77.79;100109.66;5133200;27;20522;-38
2021/05/17 07:17:25;;;;;;;5.53;1.80;;;;;;;11.76;77.39;100103.66;5133390;27;20031;-39
2021/05/17 07:19:50;;;;;;;3.40;1.75;;;;;;;11.77;78.42;100108.03;5134036;27;20519;-38
2021/05/17 07:24:59;;;;;;;5.40;1.60;;;;;;;11.69;80.31;100116.63;5134965;27;20118;-38
2021/05/17 07:27:24;;;;;;;4.60;2.10;;;;;;;11.58;81.95;100108.38;5135116;27;20113;-38
2021/05/17 07:29:51;;;;;;;4.97;1.70;;;;;;;11.50;81.61;100122.38;5134978;27;20073;-39
2021/05/17 07:32:16;;;;;;;;;;;;;;;11.55;80.70;100122.44;5134735;27;20026;-39
2021/05/17 07:34:41;;;;;;;4.93;1.50;;;;;;;11.45;81.52;100125.03;5135454;27;19915;-40
2021/05/17 07:37:07;;;;;;;4.73;1.90;;;;;;;11.42;82.21;100120.13;5133554;27;20340;-40
2021/05/17 07:39:33;;;;;;;4.05;1.50;;;;;;;11.50;82.45;100124.28;5135195;27;20160;-40
2021/05/17 07:41:59;;;;;;;7.57;1.88;;;;;;;11.49;82.16;100115.34;5135035;27;20023;-39
2021/05/17 07:44:24;;;;;;;8.90;2.00;;;;;;;11.55;82.91;100119.72;5134839;27;20042;-40
2021/05/17 07:46:50;;;;;;;9.10;1.87;;;;;;;11.61;82.28;100112.47;5134458;27;20027;-40
2021/05/17 07:49:18;;;;;;;6.70;2.00;;;;;;;11.70;81.26;100115.53;5135309;27;20260;-39
2021/05/17 07:51:45;;;;;;;4.70;1.88;;;;;;;11.77;81.40;100110.75;5134660;27;20108;-39
2021/05/17 07:54:12;;;;;;;5.53;1.73;;;;;;;11.91;81.74;100121.97;5133033;27;20035;-39
2021/05/17 07:56:38;;;;;;;8.40;2.47;;;;;;;11.93;80.46;100115.25;5134315;27;20023;-40
2021/05/17 07:59:05;;;;;;;4.15;1.60;;;;;;;12.01;80.74;100117.50;5134911;27;20023;-40
2021/05/17 08:01:30;;;;;;;4.00;1.60;;;;;;;12.12;80.24;100112.97;5134439;27;20117;-39
2021/05/17 08:03:56;;;;;;;4.53;1.90;;;;;;;12.17;80.44;100123.84;5133763;27;20118;-40
2021/05/17 08:06:24;;;;;;;6.45;2.00;;;;;;;12.22;78.66;100125.78;5134742;27;20024;-40
2021/05/17 08:08:49;;;;;;;3.83;1.90;;;;;;;12.30;79.23;100123.41;5133000;27;20039;-40
2021/05/17 08:11:14;;;;;;;6.70;1.90;;;;;;;12.41;78.91;100121.59;5134696;27;20092;-40
2021/05/17 08:13:40;;;;;;;5.27;2.30;;;;;;;12.43;78.27;100119.44;5134143;27;20019;-39
2021/05/17 08:16:07;;;;;;;8.10;1.70;;;;;;;12.48;78.18;100119.47;5135142;27;20027;-39
2021/05/17 08:18:32;;;;;;;4.88;1.50;;;;;;;12.73;76.50;100123.41;5133097;27;20027;-39
2021/05/17 08:20:58;;;;;;;4.37;1.40;;;;;;;12.87;77.00;100119.16;5135033;27;20344;-39
2021/05/17 08:23:23;;;;;;;6.03;2.40;;;;;;;12.92;77.67;100121.06;5133962;27;20283;-47
2021/05/17 08:25:49;;;;;;;5.07;1.97;;;;;;;12.97;75.75;100112.97;5134290;27;20047;-39
2021/05/17 08:28:14;;;;;;;4.82;1.80;;;;;;;12.92;74.29;100124.59;5134324;27;20055;-39
2021/05/17 08:30:42;;;;;;;4.03;1.55;;;;;;;12.99;74.47;100124.38;5134263;27;20095;-38
2021/05/17 08:33:11;;;;;;;3.03;1.40;;;;;;;13.21;74.64;100124.19;5133991;27;20039;-38
2021/05/17 08:35:38;;;;;;;6.07;1.73;;;;;;;13.32;74.16;100125.88;5134783;27;20027;-38
2021/05/17 08:38:05;;;;;;;3.25;1.40;;;;;;;13.26;72.64;100122.34;5134158;27;20035;-38
2021/05/17 08:40:34;;;;;;;4.57;1.50;;;;;;;13.29;73.67;100126.44;5134070;27;20518;-38
2021/05/17 08:43:00;;;;;;;3.97;1.58;;;;;;;13.34;75.55;100124.53;5135882;27;20024;-38
2021/05/17 08:45:26;;;;;;;;;;;;;;;13.42;74.52;100128.66;5138366;27;20054;-38
2021/05/17 08:47:51;;;;;;;4.63;1.67;;;;;;;13.24;72.75;100124.50;5137892;27;19958;-39
2021/05/17 08:50:17;;;;;;;4.25;1.35;;;;;;;13.15;72.25;100126.88;5138750;27;20027;-39
2021/05/17 08:52:42;;;;;;;3.03;1.40;;;;;;;12.92;72.64;100124.59;5138094;27;20027;-39
2021/05/17 08:55:10;;;;;;;3.83;1.40;;;;;;;12.81;73.70;100136.50;5138329;27;20310;-39
2021/05/17 08:57:36;;;;;;;5.07;1.92;;;;;;;12.76;74.48;100133.75;5137901;27;20375;-39
2021/05/17 09:00:03;;;;;;;5.18;1.63;;;;;;;12.85;74.72;100132.19;5138152;27;20080;-39
2021/05/17 09:02:28;;;;;;;5.38;1.85;;;;;;;12.87;74.69;100130.00;5137804;27;20037;-39
2021/05/17 09:05:14;;;;;;;4.37;1.60;;;;;;;13.07;74.48;100134.72;5137564;27;20483;-39
2021/05/17 09:07:42;;;;;;;3.67;1.50;;;;;;;13.33;74.42;100133.78;5138129;27;20327;-39
2021/05/17 09:10:14;;;;;;;3.03;1.50;;;;;;;13.45;73.99;100130.81;5138012;27;20019;-40
2021/05/17 09:13:00;;;;;;;5.72;1.65;;;;;;;13.55;71.97;100135.47;5137995;27;20019;-39
2021/05/17 09:15:34;;;;;;;3.38;1.27;;;;;;;13.57;70.46;100127.88;5137984;27;20083;-40
2021/05/17 09:18:05;;;;;;;2.70;1.10;;;;;;;13.74;71.21;100138.50;5137831;27;20031;-40
2021/05/17 09:20:35;;;;;;;6.57;1.55;;;;;;;13.81;69.63;100133.59;5137223;27;20035;-40
2021/05/17 09:23:05;;;;;;;3.83;1.42;;;;;;;13.73;70.29;100136.88;5137767;27;20060;-40
2021/05/17 09:25:30;;;;;;;6.95;1.83;;;;;;;13.58;71.89;100148.53;5137909;27;20456;-40
2021/05/17 09:28:07;;;;;;;3.70;1.40;;;;;;;13.28;73.62;100150.06;5138198;27;20091;-40
2021/05/17 09:30:47;;;;;;;2.25;1.25;;;;;;;13.07;75.14;100148.28;5138150;27;20035;-40
2021/05/17 09:33:14;;;;;;;3.28;1.52;;;;;;;12.89;75.52;100149.56;5137436;27;20106;-40
2021/05/17 09:35:41;;;;;;;3.38;1.70;;;;;;;12.84;77.27;100153.06;5137300;27;20114;-41
2021/05/17 09:38:20;;;;;;;4.47;1.60;;;;;;;12.85;78.96;100148.44;5136921;27;20481;-40
2021/05/17 09:40:47;;;;;;;3.28;1.70;;;;;;;12.94;77.79;100149.59;5136732;27;20470;-40
2021/05/17 09:43:15;;;;;;;3.03;1.55;;;;;;;13.09;77.23;100148.84;5137689;27;20028;-40
2021/05/17 09:45:46;;;;;;;3.67;1.83;;;;;;;13.20;77.32;100139.66;5137575;27;20023;-40
2021/05/17 09:48:30;;;;;;;3.40;1.63;;;;;;;13.49;77.50;100150.94;5136939;27;20019;-40
2021/05/17 09:51:02;;;;;;;4.10;1.88;;;;;;;13.79;79.69;100139.31;5137722;27;20023;-40
2021/05/17 09:53:39;;;;;;;3.33;1.80;;;;;;;13.97;78.02;100137.19;5137467;27;20035;-40
2021/05/17 09:56:17;;;;;;;4.65;1.55;;;;;;;14.24;73.86;100140.44;5136330;27;20130;-41
2021/05/17 09:58:45;;;;;;;7.15;1.95;;;;;;;14.38;72.42;100132.53;5137126;27;20106;-40
2021/05/17 10:01:21;;;;;;;3.47;1.65;;;;;;;14.45;72.44;100146.69;5136756;27;20023;-40
2021/05/17 10:03:54;;;;;;;2.65;1.50;;;;;;;14.65;70.43;100145.88;5136747;27;20015;-40
2021/05/17 10:06:22;;;;;;;3.33;1.73;;;;;;;15.02;69.84;100148.22;5136977;27;20026;-40
2021/05/17 10:08:48;;;;;;;3.58;1.50;;;;;;;15.12;68.04;100144.66;5136534;27;20027;-39
2021/05/17 10:11:15;;;;;;;3.45;1.45;;;;;;;14.94;70.02;100141.47;5137121;27;20546;-40
2021/05/17 10:13:41;;;;;;;2.58;1.50;;;;;;;14.74;69.17;100143.41;5136517;27;20027;-40
2021/05/17 10:16:11;;;;;;;2.42;1.20;;;;;;;14.55;68.14;100144.00;5136802;27;20027;-39
2021/05/17 10:18:38;;;;;;;3.88;1.73;;;;;;;14.29;70.07;100154.03;5136393;27;20054;-40
2021/05/17 10:21:06;;;;;;;2.05;1.00;;;;;;;14.05;70.04;100142.88;5136582;27;20297;-40
2021/05/17 10:23:31;;;;;;;2.58;1.17;;;;;;;13.94;73.04;100159.44;5136405;27;20064;-39
2021/05/17 10:26:07;;;;;;;3.07;1.00;;;;;;;13.86;73.55;100164.34;5136642;27;20031;-39
2021/05/17 10:28:35;;;;;;;2.95;1.42;;;;;;;13.78;72.56;100162.16;5136242;27;20264;-39
2021/05/17 10:31:10;;;;;;;1.38;1.00;;;;;;;13.84;72.61;100171.13;5136537;27;20031;-39
2021/05/17 10:33:36;;;;;;;1.42;0.80;;;;;;;13.78;73.48;100162.16;5136135;27;20428;-39
2021/05/17 10:36:05;;;;;;;1.30;0.50;;;;;;;13.77;74.44;100176.81;5136898;27;20019;-39
2021/05/17 10:41:16;;;;;;;0.97;0.60;;;;;;;13.98;75.37;100174.13;5135957;27;20031;-39
2021/05/17 10:46:40;;;;;;;1.52;1.00;;;;;;;14.11;73.94;100166.28;5136210;27;20463;-39
2021/05/17 10:49:28;;;;;;;1.98;1.23;;;;;;;14.11;72.89;100171.72;5135450;27;20483;-39
2021/05/17 10:52:17;;;;;;;2.20;1.20;;;;;;;14.18;73.33;100172.25;5136041;27;20069;-39
2021/05/17 10:54:44;;;;;;;1.45;1.10;;;;;;;14.35;72.24;100172.00;5135933;27;20031;-39
2021/05/17 10:57:22;;;;;;;2.00;1.75;;;;;;;14.52;72.62;100174.47;5135957;27;20023;-39
2021/05/17 11:02:38;;;;;;;2.05;1.63;;;;;;;14.66;71.82;100178.25;5135564;27;20406;-39
2021/05/17 11:05:16;;;;;;;1.95;1.70;;;;;;;14.70;72.92;100172.28;5135952;27;20172;-38
2021/05/17 11:07:51;;;;;;;3.05;1.77;;;;;;;14.70;71.70;100183.97;5134504;27;20027;-39
2021/05/17 11:10:21;;;;;;;2.83;2.08;;;;;;;14.60;71.02;100189.44;5135439;27;20063;-39
2021/05/17 11:13:12;;;;;;;3.25;2.13;;;;;;;14.68;71.23;100191.56;5135019;27;20459;-39
2021/05/17 11:15:48;;;;;;;2.05;1.75;;;;;;;14.76;71.17;100190.22;5136050;27;20027;-39
2021/05/17 11:18:13;;;;;;;3.65;2.15;;;;;;;14.88;70.67;100188.00;5135545;27;20035;-39
2021/05/17 11:20:48;;;;;;;2.60;1.90;;;;;;;15.04;69.80;100186.09;5135733;27;20061;-39
2021/05/17 11:23:23;;;;;;;2.95;2.10;;;;;;;15.25;69.81;100189.56;5135618;27;20114;-39
2021/05/17 11:28:34;;;;;;;2.50;2.30;;;;;;;15.64;68.57;100195.94;5135427;27;20042;-39
2021/05/17 11:31:03;;;;;;;3.60;2.50;;;;;;;15.66;69.33;100191.06;5135607;27;20114;-39
2021/05/17 11:33:46;;;;;;;2.88;2.15;;;;;;;15.72;67.68;100201.94;5135117;27;20127;-38
2021/05/17 11:36:11;;;;;;;2.00;1.83;;;;;;;15.74;67.04;100183.38;5135547;27;20038;-39
2021/05/17 11:38:57;;;;;;;2.40;2.20;;;;;;;15.75;68.28;100185.81;5134630;27;20064;-38
2021/05/17 11:41:23;;;;;;;3.10;2.35;;;;;;;15.77;66.11;100186.34;5134664;27;20352;-39
2021/05/17 11:43:48;;;;;;;3.38;2.10;;;;;;;15.91;66.71;100198.28;5134708;27;20100;-39
2021/05/17 11:46:16;;;;;;;2.42;2.15;;;;;;;16.01;66.99;100207.50;5135065;27;20034;-39
2021/05/17 11:48:45;;;;;;;2.38;2.17;;;;;;;16.04;65.49;100207.72;5134447;27;20019;-39
2021/05/17 11:51:12;;;;;;;2.47;2.28;;;;;;;16.02;65.07;100209.13;5134911;27;20027;-38
2021/05/17 11:53:45;;;;;;;2.38;2.13;;;;;;;16.01;64.91;100219.22;5134243;27;20510;-39
2021/05/17 11:56:10;;;;;;;2.70;2.42;;;;;;;16.01;65.28;100227.38;5134857;27;20030;-38
2021/05/17 11:58:36;;;;;;;3.67;2.67;;;;;;;15.88;65.44;100226.09;5134477;27;20019;-39
2021/05/17 12:01:19;;;;;;;3.30;3.00;;;;;;;15.75;65.85;100231.34;5134963;27;20050;-39